createdAt,value
2019-05-26T00:01:00.966Z,8.60
2019-05-26T00:03:29.401Z,8.60
2019-05-26T00:05:57.841Z,8.60
2019-05-26T00:08:27.002Z,8.60
2019-05-26T00:10:55.707Z,8.60
2019-05-26T00:13:24.158Z,8.60
2019-05-26T00:15:52.593Z,8.60
2019-05-26T00:18:21.040Z,8.60
2019-05-26T00:20:49.757Z,8.60
2019-05-26T00:23:18.461Z,8.60
2019-05-26T00:25:46.896Z,8.60
2019-05-26T00:28:15.661Z,8.60
2019-05-26T00:30:44.125Z,8.60
2019-05-26T00:33:12.574Z,8.60
2019-05-26T00:35:41.019Z,8.60
2019-05-26T00:38:09.467Z,8.60
2019-05-26T00:40:37.905Z,8.50
2019-05-26T00:43:06.371Z,8.60
2019-05-26T00:45:35.239Z,8.60
2019-05-26T00:48:04.229Z,8.60
2019-05-26T00:50:33.052Z,8.50
2019-05-26T00:53:02.033Z,8.50
2019-05-26T00:55:30.547Z,8.40
2019-05-26T00:57:59.046Z,8.40
2019-05-26T01:00:38.808Z,8.40
2019-05-26T01:03:07.730Z,8.30
2019-05-26T01:05:36.226Z,8.30
2019-05-26T01:08:06.956Z,8.30
2019-05-26T01:10:36.458Z,8.30
2019-05-26T01:13:06.213Z,8.20
2019-05-26T01:15:35.259Z,8.20
2019-05-26T01:18:04.646Z,8.20
2019-05-26T01:20:33.091Z,8.20
2019-05-26T01:23:01.526Z,8.20
2019-05-26T01:25:29.988Z,8.20
2019-05-26T01:27:58.780Z,8.10
2019-05-26T01:30:35.334Z,8.10
2019-05-26T01:33:04.130Z,8.10
2019-05-26T01:35:33.638Z,8.10
2019-05-26T01:38:03.459Z,8.00
2019-05-26T01:40:40.121Z,8.00
2019-05-26T01:43:08.994Z,8.00
2019-05-26T01:45:37.763Z,8.00
2019-05-26T01:48:07.037Z,8.10
2019-05-26T01:50:35.705Z,8.00
2019-05-26T01:53:04.897Z,8.00
2019-05-26T01:55:33.775Z,8.00
2019-05-26T01:58:02.214Z,8.00
2019-05-26T02:00:30.728Z,8.00
2019-05-26T02:02:59.153Z,8.00
2019-05-26T02:05:27.612Z,8.00
2019-05-26T02:07:56.376Z,8.00
2019-05-26T02:10:24.820Z,8.00
2019-05-26T02:12:53.249Z,8.00
2019-05-26T02:15:23.039Z,8.00
2019-05-26T02:17:51.545Z,8.00
2019-05-26T02:20:20.123Z,8.00
2019-05-26T02:22:48.607Z,8.00
2019-05-26T02:25:18.819Z,8.00
2019-05-26T02:27:47.346Z,8.00
2019-05-26T02:30:17.530Z,8.00
2019-05-26T02:32:45.967Z,8.00
2019-05-26T02:35:14.852Z,8.00
2019-05-26T02:37:43.531Z,8.00
2019-05-26T02:40:12.422Z,7.90
2019-05-26T02:42:41.335Z,7.90
2019-05-26T02:45:12.938Z,7.90
2019-05-26T02:47:41.446Z,8.00
2019-05-26T02:50:10.502Z,8.00
2019-05-26T02:52:38.995Z,8.00
2019-05-26T02:55:09.901Z,8.00
2019-05-26T02:57:38.341Z,8.00
2019-05-26T03:00:11.669Z,8.00
2019-05-26T03:02:40.367Z,8.00
2019-05-26T03:05:10.803Z,8.00
2019-05-26T03:07:43.562Z,8.00
2019-05-26T03:10:14.480Z,8.10
2019-05-26T03:12:43.961Z,8.10
2019-05-26T03:15:15.482Z,8.10
2019-05-26T03:17:43.979Z,8.10
2019-05-26T03:20:14.222Z,8.20
2019-05-26T03:22:43.190Z,8.20
2019-05-26T03:25:12.753Z,8.20
2019-05-26T03:27:41.684Z,8.30
2019-05-26T03:30:10.710Z,8.30
2019-05-26T03:32:39.397Z,8.40
2019-05-26T03:35:10.536Z,8.40
2019-05-26T03:37:39.097Z,8.40
2019-05-26T03:40:09.212Z,8.40
2019-05-26T03:42:37.808Z,8.40
2019-05-26T03:45:07.708Z,8.40
2019-05-26T03:47:36.368Z,8.40
2019-05-26T03:50:16.256Z,8.50
2019-05-26T03:52:44.702Z,8.50
2019-05-26T03:55:13.425Z,8.60
2019-05-26T03:57:41.870Z,8.60
2019-05-26T04:00:10.648Z,8.60
2019-05-26T04:02:39.367Z,8.70
2019-05-26T04:05:08.354Z,8.70
2019-05-26T04:07:36.883Z,8.70
2019-05-26T04:10:06.885Z,8.80
2019-05-26T04:12:35.766Z,8.90
2019-05-26T04:15:06.725Z,8.90
2019-05-26T04:17:35.167Z,9.10
2019-05-26T04:20:05.541Z,9.10
2019-05-26T04:22:33.972Z,9.20
2019-05-26T04:25:03.151Z,9.30
2019-05-26T04:27:31.608Z,9.40
2019-05-26T04:30:00.054Z,9.50
2019-05-26T04:32:28.566Z,9.60
2019-05-26T04:34:57.000Z,9.70
2019-05-26T04:37:25.735Z,9.90
2019-05-26T04:39:54.235Z,10.00
2019-05-26T04:42:22.945Z,10.10
2019-05-26T04:44:51.626Z,10.30
2019-05-26T04:47:20.092Z,10.40
2019-05-26T04:49:48.605Z,10.50
2019-05-26T04:52:17.075Z,10.60
2019-05-26T04:54:45.602Z,10.80
2019-05-26T04:57:14.082Z,10.90
2019-05-26T04:59:42.515Z,11.00
2019-05-26T05:02:10.971Z,11.20
2019-05-26T05:04:39.699Z,11.20
2019-05-26T05:07:08.492Z,11.30
2019-05-26T05:09:37.207Z,11.30
2019-05-26T05:12:05.650Z,11.40
2019-05-26T05:14:34.096Z,11.50
2019-05-26T05:17:02.551Z,11.60
2019-05-26T05:19:30.994Z,11.60
2019-05-26T05:21:59.462Z,11.70
2019-05-26T05:24:28.141Z,11.70
2019-05-26T05:26:56.855Z,11.70
2019-05-26T05:29:25.567Z,11.80
2019-05-26T05:31:54.010Z,11.90
2019-05-26T05:34:22.700Z,12.00
2019-05-26T05:36:51.154Z,12.00
2019-05-26T05:39:19.590Z,12.20
2019-05-26T05:41:48.316Z,12.40
2019-05-26T05:44:16.838Z,12.50
2019-05-26T05:46:45.297Z,12.70
2019-05-26T05:49:13.979Z,12.90
2019-05-26T05:51:42.439Z,13.20
2019-05-26T05:54:11.168Z,13.40
2019-05-26T05:56:39.622Z,13.70
2019-05-26T05:59:08.067Z,13.90
2019-05-26T06:01:36.523Z,14.20
2019-05-26T06:04:05.027Z,14.40
2019-05-26T06:06:33.490Z,14.60
2019-05-26T06:09:01.941Z,14.80
2019-05-26T06:11:30.391Z,15.00
2019-05-26T06:13:58.902Z,15.10
2019-05-26T06:16:28.423Z,15.20
2019-05-26T06:18:56.864Z,15.30
2019-05-26T06:21:26.162Z,15.40
2019-05-26T06:23:54.603Z,15.60
2019-05-26T06:26:23.071Z,15.80
2019-05-26T06:28:52.557Z,15.90
2019-05-26T06:31:21.325Z,16.10
2019-05-26T06:33:50.082Z,16.20
2019-05-26T06:36:18.538Z,16.50
2019-05-26T06:38:46.981Z,16.50
2019-05-26T06:41:30.426Z,16.60
2019-05-26T06:43:45.875Z,16.60
2019-05-26T06:46:14.325Z,16.60
2019-05-26T06:48:42.771Z,16.60
2019-05-26T06:51:11.479Z,16.60
2019-05-26T06:53:39.916Z,16.60
2019-05-26T06:56:08.628Z,16.60
2019-05-26T06:58:37.352Z,16.70
2019-05-26T07:01:06.111Z,16.70
2019-05-26T07:03:34.572Z,16.70
2019-05-26T07:06:03.007Z,16.70
2019-05-26T07:08:31.715Z,16.80
2019-05-26T07:11:00.150Z,16.80
2019-05-26T07:13:28.675Z,16.70
2019-05-26T07:15:57.125Z,16.70
2019-05-26T07:18:25.579Z,16.70
2019-05-26T07:20:54.018Z,16.80
2019-05-26T07:23:22.474Z,16.90
2019-05-26T07:25:50.919Z,16.90
2019-05-26T07:28:19.438Z,17.00
2019-05-26T07:30:47.904Z,17.20
2019-05-26T07:33:16.668Z,17.20
2019-05-26T07:35:45.109Z,17.20
2019-05-26T07:38:13.558Z,17.30
2019-05-26T07:40:42.012Z,17.20
2019-05-26T07:43:10.796Z,17.20
2019-05-26T07:45:39.241Z,17.10
2019-05-26T07:48:07.975Z,17.10
2019-05-26T07:50:36.419Z,17.20
2019-05-26T07:53:04.944Z,17.20
2019-05-26T07:55:33.390Z,17.30
2019-05-26T07:58:01.925Z,17.40
2019-05-26T08:00:30.684Z,17.50
2019-05-26T08:02:59.854Z,17.50
2019-05-26T08:05:28.603Z,17.60
2019-05-26T08:08:11.642Z,17.70
2019-05-26T08:10:27.381Z,17.80
2019-05-26T08:12:56.095Z,17.90
2019-05-26T08:15:24.904Z,18.00
2019-05-26T08:17:53.592Z,18.00
2019-05-26T08:20:22.385Z,18.30
2019-05-26T08:22:50.827Z,18.50
2019-05-26T08:25:19.359Z,18.60
2019-05-26T08:27:47.883Z,18.80
2019-05-26T08:30:16.506Z,18.80
2019-05-26T08:32:45.351Z,18.80
2019-05-26T08:35:14.822Z,18.70
2019-05-26T08:37:43.292Z,18.80
2019-05-26T08:40:18.111Z,18.80
2019-05-26T08:42:51.495Z,18.90
2019-05-26T08:45:22.611Z,18.90
2019-05-26T08:47:52.533Z,19.10
2019-05-26T08:50:21.977Z,19.20
2019-05-26T08:52:50.537Z,19.40
2019-05-26T08:55:19.339Z,19.50
2019-05-26T08:57:47.881Z,19.70
2019-05-26T09:00:17.062Z,19.80
2019-05-26T09:02:45.780Z,19.90
2019-05-26T09:05:14.651Z,19.90
2019-05-26T09:07:43.109Z,20.20
2019-05-26T09:10:12.394Z,20.40
2019-05-26T09:12:40.926Z,20.70
2019-05-26T09:15:09.932Z,20.90
2019-05-26T09:17:38.519Z,21.00
2019-05-26T09:20:11.651Z,21.00
2019-05-26T09:22:39.648Z,21.00
2019-05-26T09:25:09.086Z,20.80
2019-05-26T09:27:37.851Z,20.70
2019-05-26T09:30:07.584Z,20.70
2019-05-26T09:32:36.274Z,20.40
2019-05-26T09:35:07.751Z,20.30
2019-05-26T09:37:36.252Z,20.20
2019-05-26T09:40:08.702Z,20.10
2019-05-26T09:42:37.239Z,20.00
2019-05-26T09:45:08.887Z,19.90
2019-05-26T09:47:37.668Z,20.00
2019-05-26T09:50:07.175Z,20.10
2019-05-26T09:52:36.062Z,20.30
2019-05-26T09:55:09.327Z,20.40
2019-05-26T09:57:37.789Z,20.40
2019-05-26T10:00:08.075Z,20.50
2019-05-26T10:02:36.911Z,20.20
2019-05-26T10:05:07.099Z,20.10
2019-05-26T10:07:35.628Z,20.20
2019-05-26T10:10:08.817Z,20.40
2019-05-26T10:12:37.253Z,20.40
2019-05-26T10:15:10.111Z,20.50
2019-05-26T10:17:38.551Z,20.80
2019-05-26T10:20:10.094Z,21.10
2019-05-26T10:22:38.538Z,21.20
2019-05-26T10:25:08.747Z,21.50
2019-05-26T10:27:37.224Z,21.80
2019-05-26T10:30:11.894Z,22.00
2019-05-26T10:32:40.948Z,22.10
2019-05-26T10:35:10.543Z,22.10
2019-05-26T10:37:39.051Z,22.10
2019-05-26T10:40:09.199Z,22.00
2019-05-26T10:42:37.946Z,22.00
2019-05-26T10:45:08.572Z,22.20
2019-05-26T10:47:37.048Z,22.40
2019-05-26T10:50:09.032Z,22.30
2019-05-26T10:52:37.512Z,22.50
2019-05-26T10:55:09.211Z,22.60
2019-05-26T10:57:37.679Z,22.40
2019-05-26T11:00:08.526Z,22.40
2019-05-26T11:02:37.055Z,22.30
2019-05-26T11:05:07.280Z,22.20
2019-05-26T11:07:35.807Z,22.20
2019-05-26T11:10:08.656Z,22.10
2019-05-26T11:12:37.180Z,22.20
2019-05-26T11:15:09.580Z,22.20
2019-05-26T11:17:38.235Z,22.00
2019-05-26T11:20:08.648Z,21.80
2019-05-26T11:22:37.402Z,21.70
2019-05-26T11:25:06.899Z,21.60
2019-05-26T11:27:35.372Z,21.60
2019-05-26T11:30:11.846Z,21.60
2019-05-26T11:32:40.563Z,21.40
2019-05-26T11:35:09.499Z,21.60
2019-05-26T11:37:38.037Z,22.00
2019-05-26T11:40:07.223Z,22.30
2019-05-26T11:42:36.020Z,22.60
2019-05-26T11:45:09.290Z,22.60
2019-05-26T11:47:37.754Z,22.70
2019-05-26T11:50:07.261Z,22.70
2019-05-26T11:52:35.716Z,22.30
2019-05-26T11:55:06.402Z,22.50
2019-05-26T11:57:36.965Z,22.60
2019-05-26T12:00:14.291Z,22.80
2019-05-26T12:02:43.935Z,22.60
2019-05-26T12:05:12.927Z,22.50
2019-05-26T12:07:41.646Z,22.40
2019-05-26T12:10:14.184Z,22.50
2019-05-26T12:12:41.895Z,22.40
2019-05-26T12:15:11.084Z,22.40
2019-05-26T12:17:39.599Z,22.70
2019-05-26T12:20:08.755Z,22.60
2019-05-26T12:22:37.369Z,22.40
2019-05-26T12:25:08.177Z,22.50
2019-05-26T12:27:36.693Z,22.50
2019-05-26T12:30:09.592Z,22.60
2019-05-26T12:32:38.018Z,22.60
2019-05-26T12:35:08.117Z,22.70
2019-05-26T12:37:36.592Z,22.70
2019-05-26T12:40:08.356Z,22.60
2019-05-26T12:42:37.132Z,22.60
2019-05-26T12:45:07.984Z,22.60
2019-05-26T12:47:36.759Z,22.70
2019-05-26T12:50:09.294Z,22.80
2019-05-26T12:52:37.379Z,22.90
2019-05-26T12:55:09.329Z,22.90
2019-05-26T12:57:37.286Z,22.80
2019-05-26T13:00:10.855Z,22.90
2019-05-26T13:02:39.459Z,23.20
2019-05-26T13:05:09.009Z,23.50
2019-05-26T13:07:37.747Z,23.70
2019-05-26T13:10:08.060Z,23.60
2019-05-26T13:12:36.551Z,23.70
2019-05-26T13:15:09.917Z,24.00
2019-05-26T13:17:38.751Z,23.50
2019-05-26T13:20:08.360Z,23.30
2019-05-26T13:22:37.050Z,23.40
2019-05-26T13:25:08.647Z,23.30
2019-05-26T13:27:37.088Z,23.20
2019-05-26T13:30:08.601Z,23.30
2019-05-26T13:32:37.047Z,23.70
2019-05-26T13:35:09.310Z,23.60
2019-05-26T13:37:37.842Z,23.70
2019-05-26T13:40:08.025Z,23.90
2019-05-26T13:42:37.456Z,24.20
2019-05-26T13:45:21.106Z,24.50
2019-05-26T13:47:38.717Z,24.40
2019-05-26T13:50:08.234Z,24.50
2019-05-26T13:52:36.683Z,24.80
2019-05-26T13:55:09.590Z,24.80
2019-05-26T13:57:38.042Z,24.90
2019-05-26T14:00:12.068Z,24.70
2019-05-26T14:02:40.728Z,24.60
2019-05-26T14:05:10.057Z,24.50
2019-05-26T14:07:38.767Z,24.60
2019-05-26T14:10:08.315Z,24.60
2019-05-26T14:12:36.938Z,24.40
2019-05-26T14:15:08.504Z,23.90
2019-05-26T14:17:38.538Z,23.50
2019-05-26T14:20:08.784Z,23.50
2019-05-26T14:22:37.263Z,23.70
2019-05-26T14:25:07.750Z,23.70
2019-05-26T14:27:36.483Z,23.90
2019-05-26T14:30:07.723Z,24.00
2019-05-26T14:32:36.182Z,24.00
2019-05-26T14:35:07.552Z,24.10
2019-05-26T14:37:36.123Z,24.20
2019-05-26T14:40:07.678Z,24.40
2019-05-26T14:42:36.269Z,24.40
2019-05-26T14:45:06.116Z,24.50
2019-05-26T14:47:34.570Z,24.60
2019-05-26T14:50:04.443Z,24.40
2019-05-26T14:52:33.163Z,24.10
2019-05-26T14:55:01.608Z,24.10
2019-05-26T14:57:31.040Z,24.10
2019-05-26T14:59:59.935Z,24.10
2019-05-26T15:02:28.520Z,24.10
2019-05-26T15:04:57.255Z,24.20
2019-05-26T15:07:25.703Z,24.30
2019-05-26T15:09:54.138Z,24.30
2019-05-26T15:12:22.922Z,24.30
2019-05-26T15:14:51.378Z,24.30
2019-05-26T15:17:19.807Z,24.40
2019-05-26T15:19:48.516Z,24.60
2019-05-26T15:22:17.170Z,24.70
2019-05-26T15:24:45.646Z,24.70
2019-05-26T15:27:14.439Z,24.80
2019-05-26T15:29:43.207Z,24.90
2019-05-26T15:32:11.894Z,25.00
2019-05-26T15:34:40.620Z,25.10
2019-05-26T15:37:09.059Z,25.10
2019-05-26T15:39:37.557Z,25.00
2019-05-26T15:42:08.338Z,24.90
2019-05-26T15:44:36.322Z,24.70
2019-05-26T15:47:05.678Z,24.50
2019-05-26T15:49:34.219Z,24.40
2019-05-26T15:52:02.802Z,24.30
2019-05-26T15:54:31.771Z,24.10
2019-05-26T15:57:00.267Z,24.00
2019-05-26T15:59:28.978Z,23.90
2019-05-26T16:01:57.435Z,23.70
2019-05-26T16:04:25.896Z,23.70
2019-05-26T16:06:54.580Z,23.50
2019-05-26T16:09:23.399Z,23.50
2019-05-26T16:11:52.120Z,23.50
2019-05-26T16:14:21.096Z,23.40
2019-05-26T16:16:51.381Z,23.30
2019-05-26T16:19:19.710Z,23.00
2019-05-26T16:21:48.490Z,23.00
2019-05-26T16:24:17.211Z,22.90
2019-05-26T16:26:45.646Z,22.70
2019-05-26T16:29:14.120Z,22.50
2019-05-26T16:31:42.559Z,22.50
2019-05-26T16:34:11.007Z,22.30
2019-05-26T16:36:39.451Z,22.20
2019-05-26T16:39:07.973Z,22.10
2019-05-26T16:41:36.771Z,22.10
2019-05-26T16:44:05.337Z,22.10
2019-05-26T16:46:33.782Z,22.10
2019-05-26T16:49:02.241Z,22.00
2019-05-26T16:51:30.976Z,22.00
2019-05-26T16:53:59.846Z,22.00
2019-05-26T16:56:28.370Z,22.10
2019-05-26T16:58:57.111Z,22.10
2019-05-26T17:01:25.838Z,22.10
2019-05-26T17:03:54.346Z,22.20
2019-05-26T17:06:22.795Z,22.10
2019-05-26T17:08:51.254Z,22.00
2019-05-26T17:11:19.693Z,21.90
2019-05-26T17:13:48.164Z,21.90
2019-05-26T17:16:16.856Z,21.90
2019-05-26T17:18:45.488Z,21.80
2019-05-26T17:21:14.015Z,21.90
2019-05-26T17:23:42.724Z,21.90
2019-05-26T17:26:11.179Z,21.90
2019-05-26T17:28:39.911Z,21.80
2019-05-26T17:31:08.364Z,21.70
2019-05-26T17:33:36.810Z,21.70
2019-05-26T17:36:05.522Z,21.50
2019-05-26T17:38:34.255Z,21.50
2019-05-26T17:41:02.945Z,21.40
2019-05-26T17:43:31.659Z,21.30
2019-05-26T17:46:00.104Z,21.20
2019-05-26T17:48:28.624Z,21.10
2019-05-26T17:50:57.527Z,21.00
2019-05-26T17:53:29.150Z,20.90
2019-05-26T17:55:58.019Z,20.70
2019-05-26T17:58:26.635Z,20.70
2019-05-26T18:00:55.086Z,20.50
2019-05-26T18:03:23.527Z,20.50
2019-05-26T18:05:52.295Z,20.40
2019-05-26T18:08:20.814Z,20.40
2019-05-26T18:10:49.419Z,20.30
2019-05-26T18:13:18.556Z,20.30
2019-05-26T18:15:47.326Z,20.20
2019-05-26T18:18:15.928Z,20.20
2019-05-26T18:20:45.950Z,20.20
2019-05-26T18:23:14.723Z,20.20
2019-05-26T18:25:43.543Z,20.10
2019-05-26T18:28:11.992Z,20.10
2019-05-26T18:30:40.997Z,20.10
2019-05-26T18:33:09.511Z,20.00
2019-05-26T18:35:38.291Z,20.00
2019-05-26T18:38:07.322Z,20.00
2019-05-26T18:40:35.800Z,19.90
2019-05-26T18:43:08.266Z,19.90
2019-05-26T18:45:36.954Z,19.80
2019-05-26T18:48:05.723Z,19.80
2019-05-26T18:50:34.812Z,19.80
2019-05-26T18:53:03.487Z,19.80
2019-05-26T18:55:31.993Z,19.80
2019-05-26T18:58:00.654Z,19.80
2019-05-26T19:00:30.945Z,19.70
2019-05-26T19:02:59.435Z,19.70
2019-05-26T19:05:33.701Z,19.60
2019-05-26T19:07:58.304Z,19.60
2019-05-26T19:10:27.007Z,19.60
2019-05-26T19:12:55.767Z,19.60
2019-05-26T19:15:24.284Z,19.50
2019-05-26T19:17:52.979Z,19.50
2019-05-26T19:20:22.614Z,19.50
2019-05-26T19:22:53.438Z,19.50
2019-05-26T19:25:21.542Z,19.40
2019-05-26T19:27:50.064Z,19.40
2019-05-26T19:30:18.676Z,19.40
2019-05-26T19:32:47.180Z,19.40
2019-05-26T19:35:15.614Z,19.30
2019-05-26T19:37:44.064Z,19.30
2019-05-26T19:40:13.599Z,19.30
2019-05-26T19:42:42.297Z,19.20
2019-05-26T19:45:11.130Z,19.20
2019-05-26T19:47:39.571Z,19.20
2019-05-26T19:50:08.718Z,19.20
2019-05-26T19:52:37.172Z,19.20
2019-05-26T19:55:08.754Z,19.20
2019-05-26T19:57:37.497Z,19.20
2019-05-26T20:00:15.211Z,19.20
2019-05-26T20:02:43.658Z,19.10
2019-05-26T20:05:14.530Z,19.10
2019-05-26T20:07:43.027Z,19.10
2019-05-26T20:10:12.059Z,19.10
2019-05-26T20:12:40.867Z,19.10
2019-05-26T20:15:11.406Z,19.10
2019-05-26T20:17:39.857Z,19.10
2019-05-26T20:20:09.473Z,19.00
2019-05-26T20:22:38.003Z,19.00
2019-05-26T20:25:08.771Z,19.00
2019-05-26T20:27:37.362Z,19.00
2019-05-26T20:30:09.304Z,19.00
2019-05-26T20:32:38.295Z,18.90
2019-05-26T20:35:10.116Z,18.90
2019-05-26T20:37:38.878Z,18.90
2019-05-26T20:40:09.239Z,18.90
2019-05-26T20:42:38.324Z,18.90
2019-05-26T20:45:08.009Z,18.90
2019-05-26T20:47:36.566Z,18.90
2019-05-26T20:50:08.274Z,18.90
2019-05-26T20:52:38.561Z,18.90
2019-05-26T20:55:09.095Z,18.90
2019-05-26T20:57:37.960Z,18.80
2019-05-26T21:00:11.515Z,18.80
2019-05-26T21:02:41.079Z,18.80
2019-05-26T21:05:10.619Z,18.80
2019-05-26T21:07:39.082Z,18.80
2019-05-26T21:10:08.708Z,18.80
2019-05-26T21:12:37.237Z,18.80
2019-05-26T21:15:08.989Z,18.80
2019-05-26T21:17:37.435Z,18.70
2019-05-26T21:20:10.091Z,18.70
2019-05-26T21:22:39.021Z,18.70
2019-05-26T21:25:08.000Z,18.70
2019-05-26T21:27:36.597Z,18.70
2019-05-26T21:30:09.882Z,18.60
2019-05-26T21:32:38.388Z,18.60
2019-05-26T21:35:07.663Z,18.60
2019-05-26T21:37:36.200Z,18.60
2019-05-26T21:40:07.093Z,18.60
2019-05-26T21:42:35.533Z,18.60
2019-05-26T21:45:05.806Z,18.50
2019-05-26T21:47:34.270Z,18.60
2019-05-26T21:50:03.216Z,18.50
2019-05-26T21:52:31.745Z,18.50
2019-05-26T21:55:00.309Z,18.50
2019-05-26T21:57:28.807Z,18.50
2019-05-26T21:59:57.274Z,18.50
2019-05-26T22:02:26.147Z,18.50
2019-05-26T22:04:54.662Z,18.50
2019-05-26T22:07:23.399Z,18.40
2019-05-26T22:09:52.060Z,18.50
2019-05-26T22:12:20.615Z,18.40
2019-05-26T22:14:49.368Z,18.40
2019-05-26T22:17:17.871Z,18.40
2019-05-26T22:19:46.671Z,18.40
2019-05-26T22:22:15.113Z,18.30
2019-05-26T22:24:43.567Z,18.40
2019-05-26T22:27:12.267Z,18.40
2019-05-26T22:29:40.875Z,18.30
2019-05-26T22:32:12.554Z,18.30
2019-05-26T22:34:41.071Z,18.30
2019-05-26T22:37:09.589Z,18.30
2019-05-26T22:39:38.188Z,18.30
2019-05-26T22:42:06.626Z,18.30
2019-05-26T22:44:35.115Z,18.30
2019-05-26T22:47:03.641Z,18.30
2019-05-26T22:49:32.229Z,18.20
2019-05-26T22:52:00.745Z,18.30
2019-05-26T22:54:29.337Z,18.20
2019-05-26T22:56:58.058Z,18.30
2019-05-26T22:59:26.880Z,18.20
2019-05-26T23:01:55.342Z,18.20
2019-05-26T23:04:23.771Z,18.20
2019-05-26T23:06:52.235Z,18.20
2019-05-26T23:09:20.671Z,18.20
2019-05-26T23:11:49.367Z,18.20
2019-05-26T23:14:17.814Z,18.20
2019-05-26T23:16:46.256Z,18.20
2019-05-26T23:19:19.410Z,18.20
2019-05-26T23:21:45.076Z,18.20
2019-05-26T23:24:14.294Z,18.20
2019-05-26T23:26:42.836Z,18.30
2019-05-26T23:29:11.286Z,18.20
2019-05-26T23:31:39.724Z,18.20
2019-05-26T23:34:08.429Z,18.20
2019-05-26T23:36:37.161Z,18.20
2019-05-26T23:39:07.199Z,18.20
2019-05-26T23:41:36.004Z,18.10
2019-05-26T23:44:04.706Z,18.10
2019-05-26T23:46:33.391Z,18.00
2019-05-26T23:49:01.855Z,18.10
2019-05-26T23:51:30.401Z,18.00
2019-05-26T23:53:58.890Z,18.00
2019-05-26T23:56:27.675Z,18.00
2019-05-26T23:58:56.106Z,18.00
